sensor_id;sensor_type;location;lat;lon;timestamp;temperature;humidity
49489;SHT31;35382;51.484;11.476;2023-02-03T00:01:23;1.77;99.38
49489;SHT31;35382;51.484;11.476;2023-02-03T00:03:04;1.77;99.36
49489;SHT31;35382;51.484;11.476;2023-02-03T00:04:45;1.77;99.30
49489;SHT31;35382;51.484;11.476;2023-02-03T00:06:26;1.69;99.32
49489;SHT31;35382;51.484;11.476;2023-02-03T00:08:07;1.73;99.41
49489;SHT31;35382;51.484;11.476;2023-02-03T00:09:48;1.72;99.46
49489;SHT31;35382;51.484;11.476;2023-02-03T00:11:30;1.75;99.48
49489;SHT31;35382;51.484;11.476;2023-02-03T00:13:11;1.73;99.49
49489;SHT31;35382;51.484;11.476;2023-02-03T00:14:52;1.77;99.52
49489;SHT31;35382;51.484;11.476;2023-02-03T00:16:34;1.77;99.50
49489;SHT31;35382;51.484;11.476;2023-02-03T00:18:15;1.79;99.43
49489;SHT31;35382;51.484;11.476;2023-02-03T00:19:55;1.76;99.45
49489;SHT31;35382;51.484;11.476;2023-02-03T00:21:36;1.79;99.47
49489;SHT31;35382;51.484;11.476;2023-02-03T00:23:17;1.76;99.49
49489;SHT31;35382;51.484;11.476;2023-02-03T00:25:01;1.82;99.55
49489;SHT31;35382;51.484;11.476;2023-02-03T00:26:42;1.83;99.53
49489;SHT31;35382;51.484;11.476;2023-02-03T00:28:23;1.82;99.48
49489;SHT31;35382;51.484;11.476;2023-02-03T00:30:08;1.82;99.55
49489;SHT31;35382;51.484;11.476;2023-02-03T00:31:49;1.80;99.56
49489;SHT31;35382;51.484;11.476;2023-02-03T00:33:30;1.83;99.70
49489;SHT31;35382;51.484;11.476;2023-02-03T00:35:13;1.82;99.79
49489;SHT31;35382;51.484;11.476;2023-02-03T00:36:54;1.83;99.83
49489;SHT31;35382;51.484;11.476;2023-02-03T00:38:35;1.82;99.93
49489;SHT31;35382;51.484;11.476;2023-02-03T00:40:16;1.82;99.97
49489;SHT31;35382;51.484;11.476;2023-02-03T00:41:57;1.89;99.99
49489;SHT31;35382;51.484;11.476;2023-02-03T00:43:38;1.86;99.99
49489;SHT31;35382;51.484;11.476;2023-02-03T00:45:18;1.93;99.99
49489;SHT31;35382;51.484;11.476;2023-02-03T00:46:59;1.93;99.99
49489;SHT31;35382;51.484;11.476;2023-02-03T00:48:40;1.93;99.98
49489;SHT31;35382;51.484;11.476;2023-02-03T00:50:21;1.96;99.99
49489;SHT31;35382;51.484;11.476;2023-02-03T00:52:03;1.96;99.99
49489;SHT31;35382;51.484;11.476;2023-02-03T00:53:44;1.97;99.99
49489;SHT31;35382;51.484;11.476;2023-02-03T00:55:25;2.03;99.99
49489;SHT31;35382;51.484;11.476;2023-02-03T00:57:06;2.03;99.99
49489;SHT31;35382;51.484;11.476;2023-02-03T00:58:46;2.05;99.99
49489;SHT31;35382;51.484;11.476;2023-02-03T01:00:27;2.09;99.99
49489;SHT31;35382;51.484;11.476;2023-02-03T01:02:10;2.07;99.99
49489;SHT31;35382;51.484;11.476;2023-02-03T01:03:53;2.10;99.99
49489;SHT31;35382;51.484;11.476;2023-02-03T01:05:35;2.06;99.99
49489;SHT31;35382;51.484;11.476;2023-02-03T01:07:16;2.14;99.99
49489;SHT31;35382;51.484;11.476;2023-02-03T01:08:57;2.09;99.99
49489;SHT31;35382;51.484;11.476;2023-02-03T01:10:37;2.13;99.99
49489;SHT31;35382;51.484;11.476;2023-02-03T01:12:18;2.11;99.99
49489;SHT31;35382;51.484;11.476;2023-02-03T01:13:59;2.16;99.99
49489;SHT31;35382;51.484;11.476;2023-02-03T01:15:46;2.14;99.99
49489;SHT31;35382;51.484;11.476;2023-02-03T01:17:27;2.20;99.99
49489;SHT31;35382;51.484;11.476;2023-02-03T01:19:11;2.20;99.99
49489;SHT31;35382;51.484;11.476;2023-02-03T01:20:53;2.21;99.99
49489;SHT31;35382;51.484;11.476;2023-02-03T01:22:34;2.23;99.99
49489;SHT31;35382;51.484;11.476;2023-02-03T01:24:15;2.26;99.99
49489;SHT31;35382;51.484;11.476;2023-02-03T01:25:56;2.24;99.99
49489;SHT31;35382;51.484;11.476;2023-02-03T01:27:37;2.29;99.99
49489;SHT31;35382;51.484;11.476;2023-02-03T01:29:17;2.30;99.99
49489;SHT31;35382;51.484;11.476;2023-02-03T01:31:19;2.33;99.99
49489;SHT31;35382;51.484;11.476;2023-02-03T01:33:00;2.36;99.99
49489;SHT31;35382;51.484;11.476;2023-02-03T01:34:41;2.36;99.99
49489;SHT31;35382;51.484;11.476;2023-02-03T01:36:24;2.38;99.99
49489;SHT31;35382;51.484;11.476;2023-02-03T01:38:05;2.43;99.99
49489;SHT31;35382;51.484;11.476;2023-02-03T01:39:46;2.41;99.96
49489;SHT31;35382;51.484;11.476;2023-02-03T01:41:30;2.43;99.94
49489;SHT31;35382;51.484;11.476;2023-02-03T01:43:27;2.44;99.85
49489;SHT31;35382;51.484;11.476;2023-02-03T01:45:09;2.45;99.87
49489;SHT31;35382;51.484;11.476;2023-02-03T01:46:51;2.41;99.85
49489;SHT31;35382;51.484;11.476;2023-02-03T01:48:33;2.43;99.90
49489;SHT31;35382;51.484;11.476;2023-02-03T01:50:18;2.44;99.95
49489;SHT31;35382;51.484;11.476;2023-02-03T01:52:00;2.47;99.92
49489;SHT31;35382;51.484;11.476;2023-02-03T01:53:43;2.50;99.87
49489;SHT31;35382;51.484;11.476;2023-02-03T01:55:39;2.48;99.84
49489;SHT31;35382;51.484;11.476;2023-02-03T01:57:29;2.50;99.81
49489;SHT31;35382;51.484;11.476;2023-02-03T01:59:16;2.51;99.80
49489;SHT31;35382;51.484;11.476;2023-02-03T02:00:58;2.53;99.78
49489;SHT31;35382;51.484;11.476;2023-02-03T02:02:41;2.53;99.80
49489;SHT31;35382;51.484;11.476;2023-02-03T02:04:30;2.50;99.79
49489;SHT31;35382;51.484;11.476;2023-02-03T02:06:14;2.55;99.80
49489;SHT31;35382;51.484;11.476;2023-02-03T02:07:55;2.58;99.76
49489;SHT31;35382;51.484;11.476;2023-02-03T02:09:38;2.55;99.69
49489;SHT31;35382;51.484;11.476;2023-02-03T02:11:19;2.58;99.70
49489;SHT31;35382;51.484;11.476;2023-02-03T02:13:04;2.60;99.67
49489;SHT31;35382;51.484;11.476;2023-02-03T02:14:46;2.68;99.74
49489;SHT31;35382;51.484;11.476;2023-02-03T02:16:40;2.67;99.75
49489;SHT31;35382;51.484;11.476;2023-02-03T02:18:34;2.71;99.79
49489;SHT31;35382;51.484;11.476;2023-02-03T02:20:37;2.75;99.78
49489;SHT31;35382;51.484;11.476;2023-02-03T02:22:38;2.77;99.84
49489;SHT31;35382;51.484;11.476;2023-02-03T02:24:53;2.87;99.81
49489;SHT31;35382;51.484;11.476;2023-02-03T02:26:47;2.85;99.73
49489;SHT31;35382;51.484;11.476;2023-02-03T02:34:45;2.91;99.58
49489;SHT31;35382;51.484;11.476;2023-02-03T02:36:34;2.91;99.49
49489;SHT31;35382;51.484;11.476;2023-02-03T02:38:59;2.89;99.40
49489;SHT31;35382;51.484;11.476;2023-02-03T02:40:50;2.92;99.42
49489;SHT31;35382;51.484;11.476;2023-02-03T02:42:51;2.91;99.47
49489;SHT31;35382;51.484;11.476;2023-02-03T02:44:46;2.95;99.55
49489;SHT31;35382;51.484;11.476;2023-02-03T02:50:22;3.08;99.33
49489;SHT31;35382;51.484;11.476;2023-02-03T02:52:06;3.15;99.38
49489;SHT31;35382;51.484;11.476;2023-02-03T02:53:54;3.21;99.43
49489;SHT31;35382;51.484;11.476;2023-02-03T02:55:38;3.23;99.43
49489;SHT31;35382;51.484;11.476;2023-02-03T02:57:25;3.22;99.38
49489;SHT31;35382;51.484;11.476;2023-02-03T02:59:06;3.28;99.37
49489;SHT31;35382;51.484;11.476;2023-02-03T03:00:47;3.31;99.40
49489;SHT31;35382;51.484;11.476;2023-02-03T03:02:34;3.35;99.42
49489;SHT31;35382;51.484;11.476;2023-02-03T03:04:20;3.39;99.36
49489;SHT31;35382;51.484;11.476;2023-02-03T03:06:06;3.39;99.37
49489;SHT31;35382;51.484;11.476;2023-02-03T03:07:55;3.42;99.35
49489;SHT31;35382;51.484;11.476;2023-02-03T03:12:41;3.46;99.26
49489;SHT31;35382;51.484;11.476;2023-02-03T03:14:29;3.51;99.26
49489;SHT31;35382;51.484;11.476;2023-02-03T03:16:13;3.53;99.27
49489;SHT31;35382;51.484;11.476;2023-02-03T03:18:00;3.55;99.35
49489;SHT31;35382;51.484;11.476;2023-02-03T03:19:50;3.53;99.26
49489;SHT31;35382;51.484;11.476;2023-02-03T03:21:35;3.55;99.24
49489;SHT31;35382;51.484;11.476;2023-02-03T03:23:29;3.55;99.22
49489;SHT31;35382;51.484;11.476;2023-02-03T03:25:15;3.53;99.24
49489;SHT31;35382;51.484;11.476;2023-02-03T03:27:07;3.59;99.28
49489;SHT31;35382;51.484;11.476;2023-02-03T03:28:51;3.59;99.21
49489;SHT31;35382;51.484;11.476;2023-02-03T03:30:35;3.59;99.22
49489;SHT31;35382;51.484;11.476;2023-02-03T03:32:17;3.59;99.22
49489;SHT31;35382;51.484;11.476;2023-02-03T03:33:58;3.60;99.23
49489;SHT31;35382;51.484;11.476;2023-02-03T03:36:02;3.59;99.19
49489;SHT31;35382;51.484;11.476;2023-02-03T03:38:15;3.58;99.14
49489;SHT31;35382;51.484;11.476;2023-02-03T03:40:01;3.52;99.13
49489;SHT31;35382;51.484;11.476;2023-02-03T03:43:56;3.53;99.42
49489;SHT31;35382;51.484;11.476;2023-02-03T03:45:46;3.58;99.54
49489;SHT31;35382;51.484;11.476;2023-02-03T03:47:47;3.59;99.71
49489;SHT31;35382;51.484;11.476;2023-02-03T03:49:30;3.67;99.89
49489;SHT31;35382;51.484;11.476;2023-02-03T03:51:28;3.73;99.99
49489;SHT31;35382;51.484;11.476;2023-02-03T03:53:12;3.82;99.99
49489;SHT31;35382;51.484;11.476;2023-02-03T03:54:55;3.83;99.99
49489;SHT31;35382;51.484;11.476;2023-02-03T03:58:45;3.89;99.99
49489;SHT31;35382;51.484;11.476;2023-02-03T04:00:31;3.87;99.99
49489;SHT31;35382;51.484;11.476;2023-02-03T04:02:15;3.89;99.99
49489;SHT31;35382;51.484;11.476;2023-02-03T04:03:59;3.87;99.99
49489;SHT31;35382;51.484;11.476;2023-02-03T04:05:42;3.94;99.99
49489;SHT31;35382;51.484;11.476;2023-02-03T04:07:23;4.03;99.99
49489;SHT31;35382;51.484;11.476;2023-02-03T04:09:16;4.09;99.99
49489;SHT31;35382;51.484;11.476;2023-02-03T04:10:57;4.16;99.99
49489;SHT31;35382;51.484;11.476;2023-02-03T04:12:38;4.14;99.99
49489;SHT31;35382;51.484;11.476;2023-02-03T04:14:19;4.20;99.99
49489;SHT31;35382;51.484;11.476;2023-02-03T04:16:00;4.21;99.99
49489;SHT31;35382;51.484;11.476;2023-02-03T04:17:41;4.25;99.99
49489;SHT31;35382;51.484;11.476;2023-02-03T04:19:22;4.23;99.99
49489;SHT31;35382;51.484;11.476;2023-02-03T04:21:03;4.25;99.99
49489;SHT31;35382;51.484;11.476;2023-02-03T04:22:44;4.29;99.99
49489;SHT31;35382;51.484;11.476;2023-02-03T04:24:25;4.36;99.99
49489;SHT31;35382;51.484;11.476;2023-02-03T04:26:05;4.33;99.99
49489;SHT31;35382;51.484;11.476;2023-02-03T04:27:46;4.37;99.99
49489;SHT31;35382;51.484;11.476;2023-02-03T04:29:27;4.44;99.99
49489;SHT31;35382;51.484;11.476;2023-02-03T04:31:08;4.47;99.99
49489;SHT31;35382;51.484;11.476;2023-02-03T04:32:49;4.48;99.99
49489;SHT31;35382;51.484;11.476;2023-02-03T04:34:30;4.53;99.99
49489;SHT31;35382;51.484;11.476;2023-02-03T04:36:13;4.53;99.99
49489;SHT31;35382;51.484;11.476;2023-02-03T04:37:54;4.57;99.95
49489;SHT31;35382;51.484;11.476;2023-02-03T04:39:35;4.57;99.87
49489;SHT31;35382;51.484;11.476;2023-02-03T04:41:19;4.71;99.85
49489;SHT31;35382;51.484;11.476;2023-02-03T04:43:05;4.78;99.66
49489;SHT31;35382;51.484;11.476;2023-02-03T04:44:46;4.88;99.43
49489;SHT31;35382;51.484;11.476;2023-02-03T04:46:27;4.91;99.15
49489;SHT31;35382;51.484;11.476;2023-02-03T04:48:08;4.98;98.82
49489;SHT31;35382;51.484;11.476;2023-02-03T04:49:51;5.13;98.49
49489;SHT31;35382;51.484;11.476;2023-02-03T04:51:32;5.05;98.18
49489;SHT31;35382;51.484;11.476;2023-02-03T04:53:13;4.92;98.05
49489;SHT31;35382;51.484;11.476;2023-02-03T04:54:54;4.85;97.97
49489;SHT31;35382;51.484;11.476;2023-02-03T04:56:35;4.78;98.06
49489;SHT31;35382;51.484;11.476;2023-02-03T04:58:16;4.77;98.13
49489;SHT31;35382;51.484;11.476;2023-02-03T04:59:57;4.74;98.22
49489;SHT31;35382;51.484;11.476;2023-02-03T05:01:38;4.78;98.41
49489;SHT31;35382;51.484;11.476;2023-02-03T05:03:19;4.85;98.42
49489;SHT31;35382;51.484;11.476;2023-02-03T05:05:00;4.92;98.32
49489;SHT31;35382;51.484;11.476;2023-02-03T05:06:40;4.91;98.41
49489;SHT31;35382;51.484;11.476;2023-02-03T05:08:21;5.04;98.38
49489;SHT31;35382;51.484;11.476;2023-02-03T05:10:03;5.21;98.14
49489;SHT31;35382;51.484;11.476;2023-02-03T05:11:43;5.26;97.78
49489;SHT31;35382;51.484;11.476;2023-02-03T05:13:25;5.39;97.55
49489;SHT31;35382;51.484;11.476;2023-02-03T05:15:06;5.40;97.54
49489;SHT31;35382;51.484;11.476;2023-02-03T05:16:47;5.59;97.07
49489;SHT31;35382;51.484;11.476;2023-02-03T05:18:27;5.63;96.30
49489;SHT31;35382;51.484;11.476;2023-02-03T05:20:09;5.60;95.99
49489;SHT31;35382;51.484;11.476;2023-02-03T05:21:50;5.59;95.65
49489;SHT31;35382;51.484;11.476;2023-02-03T05:23:31;5.71;95.41
49489;SHT31;35382;51.484;11.476;2023-02-03T05:25:12;5.80;94.86
49489;SHT31;35382;51.484;11.476;2023-02-03T05:26:53;5.86;94.59
49489;SHT31;35382;51.484;11.476;2023-02-03T05:28:34;5.97;93.98
49489;SHT31;35382;51.484;11.476;2023-02-03T05:30:15;6.00;93.78
49489;SHT31;35382;51.484;11.476;2023-02-03T05:31:56;6.01;93.63
49489;SHT31;35382;51.484;11.476;2023-02-03T05:33:37;6.01;93.71
49489;SHT31;35382;51.484;11.476;2023-02-03T05:35:18;6.13;93.02
49489;SHT31;35382;51.484;11.476;2023-02-03T05:36:59;6.11;93.10
49489;SHT31;35382;51.484;11.476;2023-02-03T05:38:40;6.14;93.15
49489;SHT31;35382;51.484;11.476;2023-02-03T05:40:22;6.07;93.33
49489;SHT31;35382;51.484;11.476;2023-02-03T05:42:21;6.07;93.34
49489;SHT31;35382;51.484;11.476;2023-02-03T05:44:02;6.03;93.41
49489;SHT31;35382;51.484;11.476;2023-02-03T05:45:43;6.10;92.63
49489;SHT31;35382;51.484;11.476;2023-02-03T05:47:26;6.10;92.37
49489;SHT31;35382;51.484;11.476;2023-02-03T05:49:07;6.16;92.88
49489;SHT31;35382;51.484;11.476;2023-02-03T05:50:48;6.11;92.68
49489;SHT31;35382;51.484;11.476;2023-02-03T05:52:29;6.14;92.38
49489;SHT31;35382;51.484;11.476;2023-02-03T05:54:10;6.10;92.43
49489;SHT31;35382;51.484;11.476;2023-02-03T05:55:51;6.11;92.56
49489;SHT31;35382;51.484;11.476;2023-02-03T05:57:32;6.07;92.99
49489;SHT31;35382;51.484;11.476;2023-02-03T05:59:13;6.10;92.47
49489;SHT31;35382;51.484;11.476;2023-02-03T06:00:54;6.10;92.71
49489;SHT31;35382;51.484;11.476;2023-02-03T06:02:35;6.14;92.40
49489;SHT31;35382;51.484;11.476;2023-02-03T06:04:16;6.18;92.48
49489;SHT31;35382;51.484;11.476;2023-02-03T06:05:57;6.14;92.07
49489;SHT31;35382;51.484;11.476;2023-02-03T06:07:38;6.13;92.16
49489;SHT31;35382;51.484;11.476;2023-02-03T06:09:19;6.10;92.07
49489;SHT31;35382;51.484;11.476;2023-02-03T06:11:00;6.03;92.40
49489;SHT31;35382;51.484;11.476;2023-02-03T06:12:41;5.96;92.96
49489;SHT31;35382;51.484;11.476;2023-02-03T06:14:22;5.83;93.59
49489;SHT31;35382;51.484;11.476;2023-02-03T06:16:03;5.73;94.09
49489;SHT31;35382;51.484;11.476;2023-02-03T06:17:46;5.67;94.45
49489;SHT31;35382;51.484;11.476;2023-02-03T06:19:27;5.60;94.78
49489;SHT31;35382;51.484;11.476;2023-02-03T06:21:08;5.60;94.84
49489;SHT31;35382;51.484;11.476;2023-02-03T06:22:49;5.59;94.95
49489;SHT31;35382;51.484;11.476;2023-02-03T06:24:33;5.59;94.86
49489;SHT31;35382;51.484;11.476;2023-02-03T06:26:14;5.66;94.68
49489;SHT31;35382;51.484;11.476;2023-02-03T06:27:55;5.65;94.64
49489;SHT31;35382;51.484;11.476;2023-02-03T06:29:36;5.63;94.58
49489;SHT31;35382;51.484;11.476;2023-02-03T06:31:17;5.62;94.76
49489;SHT31;35382;51.484;11.476;2023-02-03T06:32:58;5.66;94.40
49489;SHT31;35382;51.484;11.476;2023-02-03T06:34:38;5.69;94.11
49489;SHT31;35382;51.484;11.476;2023-02-03T06:36:19;5.67;94.08
49489;SHT31;35382;51.484;11.476;2023-02-03T06:38:00;5.65;94.17
49489;SHT31;35382;51.484;11.476;2023-02-03T06:39:41;5.65;94.07
49489;SHT31;35382;51.484;11.476;2023-02-03T06:41:22;5.74;93.57
49489;SHT31;35382;51.484;11.476;2023-02-03T06:43:08;5.99;92.16
49489;SHT31;35382;51.484;11.476;2023-02-03T06:44:49;6.00;92.20
49489;SHT31;35382;51.484;11.476;2023-02-03T06:46:30;5.97;91.99
49489;SHT31;35382;51.484;11.476;2023-02-03T06:48:12;6.00;92.08
49489;SHT31;35382;51.484;11.476;2023-02-03T06:49:53;6.03;92.02
49489;SHT31;35382;51.484;11.476;2023-02-03T06:51:35;6.17;91.05
49489;SHT31;35382;51.484;11.476;2023-02-03T06:53:16;6.28;90.49
49489;SHT31;35382;51.484;11.476;2023-02-03T06:54:57;6.45;89.51
49489;SHT31;35382;51.484;11.476;2023-02-03T06:56:38;6.42;90.13
49489;SHT31;35382;51.484;11.476;2023-02-03T06:58:19;6.45;89.71
49489;SHT31;35382;51.484;11.476;2023-02-03T07:00:00;6.58;89.03
49489;SHT31;35382;51.484;11.476;2023-02-03T07:01:41;6.52;89.80
49489;SHT31;35382;51.484;11.476;2023-02-03T07:03:22;6.45;89.76
49489;SHT31;35382;51.484;11.476;2023-02-03T07:05:03;6.54;89.50
49489;SHT31;35382;51.484;11.476;2023-02-03T07:06:43;6.57;89.14
49489;SHT31;35382;51.484;11.476;2023-02-03T07:08:27;6.44;90.53
49489;SHT31;35382;51.484;11.476;2023-02-03T07:10:08;6.64;88.78
49489;SHT31;35382;51.484;11.476;2023-02-03T07:11:49;6.67;88.86
49489;SHT31;35382;51.484;11.476;2023-02-03T07:13:30;6.74;88.39
49489;SHT31;35382;51.484;11.476;2023-02-03T07:15:11;6.68;88.52
49489;SHT31;35382;51.484;11.476;2023-02-03T07:16:52;6.61;89.11
49489;SHT31;35382;51.484;11.476;2023-02-03T07:18:34;6.69;88.68
49489;SHT31;35382;51.484;11.476;2023-02-03T07:20:15;6.68;88.29
49489;SHT31;35382;51.484;11.476;2023-02-03T07:21:56;6.65;88.78
49489;SHT31;35382;51.484;11.476;2023-02-03T07:23:36;6.68;88.71
49489;SHT31;35382;51.484;11.476;2023-02-03T07:25:17;6.74;88.07
49489;SHT31;35382;51.484;11.476;2023-02-03T07:26:58;6.69;88.38
49489;SHT31;35382;51.484;11.476;2023-02-03T07:28:39;6.68;88.75
49489;SHT31;35382;51.484;11.476;2023-02-03T07:30:20;6.71;88.51
49489;SHT31;35382;51.484;11.476;2023-02-03T07:32:01;6.68;88.70
49489;SHT31;35382;51.484;11.476;2023-02-03T07:33:42;6.68;88.67
49489;SHT31;35382;51.484;11.476;2023-02-03T07:35:23;6.65;88.75
49489;SHT31;35382;51.484;11.476;2023-02-03T07:37:05;6.79;87.96
49489;SHT31;35382;51.484;11.476;2023-02-03T07:38:46;6.77;88.14
49489;SHT31;35382;51.484;11.476;2023-02-03T07:40:27;6.71;88.70
49489;SHT31;35382;51.484;11.476;2023-02-03T07:42:08;6.68;88.91
49489;SHT31;35382;51.484;11.476;2023-02-03T07:43:52;6.72;88.67
49489;SHT31;35382;51.484;11.476;2023-02-03T07:45:33;6.78;88.47
49489;SHT31;35382;51.484;11.476;2023-02-03T07:47:13;6.75;88.31
49489;SHT31;35382;51.484;11.476;2023-02-03T07:48:54;6.74;88.99
49489;SHT31;35382;51.484;11.476;2023-02-03T07:50:35;6.79;89.02
49489;SHT31;35382;51.484;11.476;2023-02-03T07:52:16;6.71;88.95
49489;SHT31;35382;51.484;11.476;2023-02-03T07:53:57;6.72;89.25
49489;SHT31;35382;51.484;11.476;2023-02-03T07:55:38;6.74;89.46
49489;SHT31;35382;51.484;11.476;2023-02-03T07:57:19;6.69;89.69
49489;SHT31;35382;51.484;11.476;2023-02-03T07:59:00;6.68;90.10
49489;SHT31;35382;51.484;11.476;2023-02-03T08:00:42;6.67;90.04
49489;SHT31;35382;51.484;11.476;2023-02-03T08:02:23;6.71;90.03
49489;SHT31;35382;51.484;11.476;2023-02-03T08:04:04;6.68;89.97
49489;SHT31;35382;51.484;11.476;2023-02-03T08:05:46;6.67;90.45
49489;SHT31;35382;51.484;11.476;2023-02-03T08:07:26;6.69;90.19
49489;SHT31;35382;51.484;11.476;2023-02-03T08:09:08;6.61;90.57
49489;SHT31;35382;51.484;11.476;2023-02-03T08:10:48;6.63;90.39
49489;SHT31;35382;51.484;11.476;2023-02-03T08:12:29;6.65;90.53
49489;SHT31;35382;51.484;11.476;2023-02-03T08:14:10;6.63;90.36
49489;SHT31;35382;51.484;11.476;2023-02-03T08:15:51;6.69;90.20
49489;SHT31;35382;51.484;11.476;2023-02-03T08:17:32;6.71;90.63
49489;SHT31;35382;51.484;11.476;2023-02-03T08:19:13;6.72;90.69
49489;SHT31;35382;51.484;11.476;2023-02-03T08:20:54;6.68;91.12
49489;SHT31;35382;51.484;11.476;2023-02-03T08:22:35;6.65;91.71
49489;SHT31;35382;51.484;11.476;2023-02-03T08:24:16;6.65;91.66
49489;SHT31;35382;51.484;11.476;2023-02-03T08:25:57;6.68;91.71
49489;SHT31;35382;51.484;11.476;2023-02-03T08:27:40;6.67;91.81
49489;SHT31;35382;51.484;11.476;2023-02-03T08:29:21;6.67;91.86
49489;SHT31;35382;51.484;11.476;2023-02-03T08:31:09;6.67;92.16
49489;SHT31;35382;51.484;11.476;2023-02-03T08:32:52;6.64;92.14
49489;SHT31;35382;51.484;11.476;2023-02-03T08:34:33;6.64;92.48
49489;SHT31;35382;51.484;11.476;2023-02-03T08:36:14;6.61;92.63
49489;SHT31;35382;51.484;11.476;2023-02-03T08:37:55;6.59;92.99
49489;SHT31;35382;51.484;11.476;2023-02-03T08:39:37;6.58;93.16
49489;SHT31;35382;51.484;11.476;2023-02-03T08:41:18;6.58;93.20
49489;SHT31;35382;51.484;11.476;2023-02-03T08:42:59;6.55;93.26
49489;SHT31;35382;51.484;11.476;2023-02-03T08:44:40;6.61;93.31
49489;SHT31;35382;51.484;11.476;2023-02-03T08:46:23;6.59;93.39
49489;SHT31;35382;51.484;11.476;2023-02-03T08:48:04;6.61;93.86
49489;SHT31;35382;51.484;11.476;2023-02-03T08:49:45;6.59;93.75
49489;SHT31;35382;51.484;11.476;2023-02-03T08:51:26;6.63;93.61
49489;SHT31;35382;51.484;11.476;2023-02-03T08:53:07;6.64;93.73
49489;SHT31;35382;51.484;11.476;2023-02-03T08:54:48;6.67;93.37
49489;SHT31;35382;51.484;11.476;2023-02-03T08:56:29;6.74;92.99
49489;SHT31;35382;51.484;11.476;2023-02-03T08:58:10;6.74;93.23
49489;SHT31;35382;51.484;11.476;2023-02-03T08:59:51;6.78;92.80
49489;SHT31;35382;51.484;11.476;2023-02-03T09:01:34;6.79;92.38
49489;SHT31;35382;51.484;11.476;2023-02-03T09:03:15;6.81;92.40
49489;SHT31;35382;51.484;11.476;2023-02-03T09:04:56;6.85;92.19
49489;SHT31;35382;51.484;11.476;2023-02-03T09:06:37;6.84;92.28
49489;SHT31;35382;51.484;11.476;2023-02-03T09:08:18;6.85;92.20
49489;SHT31;35382;51.484;11.476;2023-02-03T09:09:59;6.87;92.15
49489;SHT31;35382;51.484;11.476;2023-02-03T09:11:41;6.82;92.45
49489;SHT31;35382;51.484;11.476;2023-02-03T09:13:22;6.84;92.21
49489;SHT31;35382;51.484;11.476;2023-02-03T09:15:03;6.84;92.36
49489;SHT31;35382;51.484;11.476;2023-02-03T09:16:44;6.87;92.04
49489;SHT31;35382;51.484;11.476;2023-02-03T09:18:25;6.88;92.15
49489;SHT31;35382;51.484;11.476;2023-02-03T09:20:09;6.88;91.95
49489;SHT31;35382;51.484;11.476;2023-02-03T09:21:52;6.95;91.89
49489;SHT31;35382;51.484;11.476;2023-02-03T09:23:33;6.96;91.88
49489;SHT31;35382;51.484;11.476;2023-02-03T09:25:14;6.95;92.29
49489;SHT31;35382;51.484;11.476;2023-02-03T09:26:55;6.98;92.24
49489;SHT31;35382;51.484;11.476;2023-02-03T09:28:37;7.01;92.37
49489;SHT31;35382;51.484;11.476;2023-02-03T09:30:18;6.95;92.97
49489;SHT31;35382;51.484;11.476;2023-02-03T09:31:59;6.96;92.99
49489;SHT31;35382;51.484;11.476;2023-02-03T09:33:40;6.91;93.60
49489;SHT31;35382;51.484;11.476;2023-02-03T09:35:21;6.93;93.21
49489;SHT31;35382;51.484;11.476;2023-02-03T09:37:03;6.99;93.11
49489;SHT31;35382;51.484;11.476;2023-02-03T09:38:44;6.96;93.38
49489;SHT31;35382;51.484;11.476;2023-02-03T09:40:32;6.99;93.21
49489;SHT31;35382;51.484;11.476;2023-02-03T09:44:00;6.96;93.64
49489;SHT31;35382;51.484;11.476;2023-02-03T09:45:42;6.95;93.85
49489;SHT31;35382;51.484;11.476;2023-02-03T09:47:28;6.99;93.50
49489;SHT31;35382;51.484;11.476;2023-02-03T09:49:47;7.01;93.56
49489;SHT31;35382;51.484;11.476;2023-02-03T09:51:43;7.03;93.53
49489;SHT31;35382;51.484;11.476;2023-02-03T09:53:42;7.05;93.19
49489;SHT31;35382;51.484;11.476;2023-02-03T09:55:38;7.13;93.02
49489;SHT31;35382;51.484;11.476;2023-02-03T09:57:23;7.16;92.93
49489;SHT31;35382;51.484;11.476;2023-02-03T09:59:04;7.22;93.08
49489;SHT31;35382;51.484;11.476;2023-02-03T10:01:02;7.25;93.01
49489;SHT31;35382;51.484;11.476;2023-02-03T10:03:00;7.27;92.61
49489;SHT31;35382;51.484;11.476;2023-02-03T10:06:37;7.27;92.77
49489;SHT31;35382;51.484;11.476;2023-02-03T10:08:43;7.30;92.61
49489;SHT31;35382;51.484;11.476;2023-02-03T10:10:47;7.36;92.60
49489;SHT31;35382;51.484;11.476;2023-02-03T10:14:43;7.40;92.57
49489;SHT31;35382;51.484;11.476;2023-02-03T10:16:53;7.46;92.28
49489;SHT31;35382;51.484;11.476;2023-02-03T10:18:44;7.45;92.75
49489;SHT31;35382;51.484;11.476;2023-02-03T10:20:54;7.47;92.02
49489;SHT31;35382;51.484;11.476;2023-02-03T10:22:43;7.45;92.55
49489;SHT31;35382;51.484;11.476;2023-02-03T10:26:30;7.49;92.21
49489;SHT31;35382;51.484;11.476;2023-02-03T10:28:19;7.49;92.18
49489;SHT31;35382;51.484;11.476;2023-02-03T10:30:18;7.53;91.86
49489;SHT31;35382;51.484;11.476;2023-02-03T10:31:59;7.55;91.91
49489;SHT31;35382;51.484;11.476;2023-02-03T10:33:40;7.59;91.71
49489;SHT31;35382;51.484;11.476;2023-02-03T10:35:40;7.59;91.58
49489;SHT31;35382;51.484;11.476;2023-02-03T10:37:30;7.58;91.42
49489;SHT31;35382;51.484;11.476;2023-02-03T10:39:18;7.55;91.41
49489;SHT31;35382;51.484;11.476;2023-02-03T10:41:02;7.58;91.51
49489;SHT31;35382;51.484;11.476;2023-02-03T10:42:46;7.62;90.92
49489;SHT31;35382;51.484;11.476;2023-02-03T10:44:55;7.63;91.23
49489;SHT31;35382;51.484;11.476;2023-02-03T10:46:39;7.66;91.10
49489;SHT31;35382;51.484;11.476;2023-02-03T10:48:21;7.62;91.33
49489;SHT31;35382;51.484;11.476;2023-02-03T10:50:16;7.62;91.70
49489;SHT31;35382;51.484;11.476;2023-02-03T10:51:59;7.71;90.59
49489;SHT31;35382;51.484;11.476;2023-02-03T10:53:42;7.77;90.49
49489;SHT31;35382;51.484;11.476;2023-02-03T10:57:11;7.91;89.80
49489;SHT31;35382;51.484;11.476;2023-02-03T10:58:56;7.97;89.70
49489;SHT31;35382;51.484;11.476;2023-02-03T11:00:38;8.03;89.00
49489;SHT31;35382;51.484;11.476;2023-02-03T11:02:29;8.13;88.29
49489;SHT31;35382;51.484;11.476;2023-02-03T11:04:30;8.14;88.25
49489;SHT31;35382;51.484;11.476;2023-02-03T11:06:13;8.15;88.55
49489;SHT31;35382;51.484;11.476;2023-02-03T11:07:54;8.15;88.20
49489;SHT31;35382;51.484;11.476;2023-02-03T11:09:38;8.11;88.56
49489;SHT31;35382;51.484;11.476;2023-02-03T11:11:25;8.07;88.63
49489;SHT31;35382;51.484;11.476;2023-02-03T11:13:10;8.01;88.76
49489;SHT31;35382;51.484;11.476;2023-02-03T11:14:52;7.94;89.40
49489;SHT31;35382;51.484;11.476;2023-02-03T11:16:34;7.91;89.65
49489;SHT31;35382;51.484;11.476;2023-02-03T11:20:27;7.69;91.32
49489;SHT31;35382;51.484;11.476;2023-02-03T11:22:08;7.65;91.11
49489;SHT31;35382;51.484;11.476;2023-02-03T11:23:53;7.60;92.00
49489;SHT31;35382;51.484;11.476;2023-02-03T11:25:34;7.53;92.19